sensor_id;sensor_type;location;lat;lon;timestamp;P1;durP1;ratioP1;P2;durP2;ratioP2
10116;SDS011;5098;48.792;9.012;2024-02-14T00:00:46;4.65;;;3.42;;
10116;SDS011;5098;48.792;9.012;2024-02-14T00:03:12;6.57;;;3.75;;
10116;SDS011;5098;48.792;9.012;2024-02-14T00:05:38;7.20;;;3.53;;
10116;SDS011;5098;48.792;9.012;2024-02-14T00:08:05;6.50;;;4.25;;
10116;SDS011;5098;48.792;9.012;2024-02-14T00:10:32;6.68;;;4.05;;
10116;SDS011;5098;48.792;9.012;2024-02-14T00:12:58;7.55;;;3.90;;
10116;SDS011;5098;48.792;9.012;2024-02-14T00:15:24;9.18;;;4.20;;
10116;SDS011;5098;48.792;9.012;2024-02-14T00:17:50;22.65;;;12.52;;
10116;SDS011;5098;48.792;9.012;2024-02-14T00:20:17;37.72;;;20.98;;
10116;SDS011;5098;48.792;9.012;2024-02-14T00:22:43;49.63;;;27.67;;
10116;SDS011;5098;48.792;9.012;2024-02-14T00:25:09;44.42;;;27.08;;
10116;SDS011;5098;48.792;9.012;2024-02-14T00:27:36;15.80;;;9.63;;
10116;SDS011;5098;48.792;9.012;2024-02-14T00:30:02;6.80;;;3.95;;
10116;SDS011;5098;48.792;9.012;2024-02-14T00:32:28;6.55;;;3.95;;
10116;SDS011;5098;48.792;9.012;2024-02-14T00:34:54;4.85;;;3.30;;
10116;SDS011;5098;48.792;9.012;2024-02-14T00:37:20;6.07;;;3.55;;
10116;SDS011;5098;48.792;9.012;2024-02-14T00:39:46;4.75;;;3.30;;
10116;SDS011;5098;48.792;9.012;2024-02-14T00:42:15;5.82;;;3.50;;
10116;SDS011;5098;48.792;9.012;2024-02-14T00:44:41;6.38;;;4.47;;
10116;SDS011;5098;48.792;9.012;2024-02-14T00:47:07;5.85;;;3.75;;
10116;SDS011;5098;48.792;9.012;2024-02-14T00:49:36;5.30;;;3.90;;
10116;SDS011;5098;48.792;9.012;2024-02-14T00:52:04;6.53;;;3.90;;
10116;SDS011;5098;48.792;9.012;2024-02-14T00:54:31;5.85;;;3.90;;
10116;SDS011;5098;48.792;9.012;2024-02-14T00:56:57;5.90;;;4.25;;
10116;SDS011;5098;48.792;9.012;2024-02-14T00:59:23;7.80;;;4.35;;
10116;SDS011;5098;48.792;9.012;2024-02-14T01:01:50;5.10;;;3.93;;
10116;SDS011;5098;48.792;9.012;2024-02-14T01:04:16;5.35;;;3.85;;
10116;SDS011;5098;48.792;9.012;2024-02-14T01:06:43;4.88;;;3.47;;
10116;SDS011;5098;48.792;9.012;2024-02-14T01:09:09;5.30;;;4.30;;
10116;SDS011;5098;48.792;9.012;2024-02-14T01:11:35;6.32;;;4.30;;
10116;SDS011;5098;48.792;9.012;2024-02-14T01:14:03;4.47;;;3.80;;
10116;SDS011;5098;48.792;9.012;2024-02-14T01:16:29;7.97;;;3.90;;
10116;SDS011;5098;48.792;9.012;2024-02-14T01:18:55;5.78;;;3.65;;
10116;SDS011;5098;48.792;9.012;2024-02-14T01:21:21;6.38;;;4.40;;
10116;SDS011;5098;48.792;9.012;2024-02-14T01:23:47;4.85;;;3.92;;
10116;SDS011;5098;48.792;9.012;2024-02-14T01:26:14;5.18;;;3.75;;
10116;SDS011;5098;48.792;9.012;2024-02-14T01:28:40;7.05;;;3.92;;
10116;SDS011;5098;48.792;9.012;2024-02-14T01:31:09;7.93;;;3.92;;
10116;SDS011;5098;48.792;9.012;2024-02-14T01:33:36;7.18;;;4.35;;
10116;SDS011;5098;48.792;9.012;2024-02-14T01:36:02;5.13;;;3.85;;
10116;SDS011;5098;48.792;9.012;2024-02-14T01:38:28;5.65;;;3.83;;
10116;SDS011;5098;48.792;9.012;2024-02-14T01:40:54;4.32;;;3.63;;
10116;SDS011;5098;48.792;9.012;2024-02-14T01:43:20;6.88;;;3.58;;
10116;SDS011;5098;48.792;9.012;2024-02-14T01:45:46;5.88;;;3.92;;
10116;SDS011;5098;48.792;9.012;2024-02-14T01:48:13;5.90;;;4.23;;
10116;SDS011;5098;48.792;9.012;2024-02-14T01:50:39;6.22;;;4.20;;
10116;SDS011;5098;48.792;9.012;2024-02-14T01:53:05;5.13;;;4.17;;
10116;SDS011;5098;48.792;9.012;2024-02-14T01:55:32;4.03;;;3.60;;
10116;SDS011;5098;48.792;9.012;2024-02-14T01:57:59;7.93;;;4.00;;
10116;SDS011;5098;48.792;9.012;2024-02-14T02:00:25;4.47;;;3.20;;
10116;SDS011;5098;48.792;9.012;2024-02-14T02:02:52;6.40;;;3.67;;
10116;SDS011;5098;48.792;9.012;2024-02-14T02:05:19;7.53;;;4.78;;
10116;SDS011;5098;48.792;9.012;2024-02-14T02:07:45;5.55;;;3.63;;
10116;SDS011;5098;48.792;9.012;2024-02-14T02:10:13;4.50;;;3.50;;
10116;SDS011;5098;48.792;9.012;2024-02-14T02:12:40;4.90;;;3.00;;
10116;SDS011;5098;48.792;9.012;2024-02-14T02:15:06;6.23;;;3.57;;
10116;SDS011;5098;48.792;9.012;2024-02-14T02:17:36;3.88;;;2.90;;
10116;SDS011;5098;48.792;9.012;2024-02-14T02:20:02;6.10;;;3.65;;
10116;SDS011;5098;48.792;9.012;2024-02-14T02:22:30;5.60;;;3.55;;
10116;SDS011;5098;48.792;9.012;2024-02-14T02:25:03;4.75;;;3.40;;
10116;SDS011;5098;48.792;9.012;2024-02-14T02:27:32;5.43;;;3.13;;
10116;SDS011;5098;48.792;9.012;2024-02-14T02:30:02;4.40;;;2.88;;
10116;SDS011;5098;48.792;9.012;2024-02-14T02:32:29;5.45;;;3.33;;
10116;SDS011;5098;48.792;9.012;2024-02-14T02:34:55;4.70;;;3.05;;
10116;SDS011;5098;48.792;9.012;2024-02-14T02:37:22;2.92;;;2.60;;
10116;SDS011;5098;48.792;9.012;2024-02-14T02:39:49;6.80;;;3.10;;
10116;SDS011;5098;48.792;9.012;2024-02-14T02:42:16;3.10;;;2.53;;
10116;SDS011;5098;48.792;9.012;2024-02-14T02:44:45;5.05;;;3.17;;
10116;SDS011;5098;48.792;9.012;2024-02-14T02:47:11;4.30;;;3.05;;
10116;SDS011;5098;48.792;9.012;2024-02-14T02:49:38;5.20;;;2.60;;
10116;SDS011;5098;48.792;9.012;2024-02-14T02:52:04;3.80;;;3.22;;
10116;SDS011;5098;48.792;9.012;2024-02-14T02:54:30;5.47;;;3.00;;
10116;SDS011;5098;48.792;9.012;2024-02-14T02:56:56;5.00;;;3.35;;
10116;SDS011;5098;48.792;9.012;2024-02-14T02:59:23;5.05;;;3.25;;
10116;SDS011;5098;48.792;9.012;2024-02-14T03:01:49;6.95;;;3.50;;
10116;SDS011;5098;48.792;9.012;2024-02-14T03:04:15;5.47;;;3.28;;
10116;SDS011;5098;48.792;9.012;2024-02-14T03:06:42;7.60;;;2.90;;
10116;SDS011;5098;48.792;9.012;2024-02-14T03:09:09;5.22;;;2.97;;
10116;SDS011;5098;48.792;9.012;2024-02-14T03:11:35;4.38;;;3.58;;
10116;SDS011;5098;48.792;9.012;2024-02-14T03:14:02;4.13;;;3.05;;
10116;SDS011;5098;48.792;9.012;2024-02-14T03:16:28;4.80;;;2.95;;
10116;SDS011;5098;48.792;9.012;2024-02-14T03:18:55;6.70;;;2.90;;
10116;SDS011;5098;48.792;9.012;2024-02-14T03:21:21;4.87;;;2.73;;
10116;SDS011;5098;48.792;9.012;2024-02-14T03:23:47;5.63;;;3.10;;
10116;SDS011;5098;48.792;9.012;2024-02-14T03:26:13;6.38;;;3.15;;
10116;SDS011;5098;48.792;9.012;2024-02-14T03:28:39;3.72;;;3.10;;
10116;SDS011;5098;48.792;9.012;2024-02-14T03:31:05;5.68;;;3.30;;
10116;SDS011;5098;48.792;9.012;2024-02-14T03:33:32;5.68;;;2.97;;
10116;SDS011;5098;48.792;9.012;2024-02-14T03:35:58;4.60;;;3.30;;
10116;SDS011;5098;48.792;9.012;2024-02-14T03:38:24;6.65;;;3.45;;
10116;SDS011;5098;48.792;9.012;2024-02-14T03:40:51;5.93;;;3.67;;
10116;SDS011;5098;48.792;9.012;2024-02-14T03:43:17;6.40;;;3.50;;
10116;SDS011;5098;48.792;9.012;2024-02-14T03:45:43;4.63;;;3.00;;
10116;SDS011;5098;48.792;9.012;2024-02-14T03:48:09;4.78;;;3.28;;
10116;SDS011;5098;48.792;9.012;2024-02-14T03:50:38;4.75;;;3.20;;
10116;SDS011;5098;48.792;9.012;2024-02-14T03:53:04;4.05;;;3.60;;
10116;SDS011;5098;48.792;9.012;2024-02-14T03:55:30;4.35;;;3.10;;
10116;SDS011;5098;48.792;9.012;2024-02-14T03:57:56;4.90;;;3.30;;
10116;SDS011;5098;48.792;9.012;2024-02-14T04:00:22;4.68;;;2.88;;
10116;SDS011;5098;48.792;9.012;2024-02-14T04:02:49;8.10;;;3.08;;
10116;SDS011;5098;48.792;9.012;2024-02-14T04:05:18;6.15;;;3.05;;
10116;SDS011;5098;48.792;9.012;2024-02-14T04:07:45;4.28;;;2.92;;
10116;SDS011;5098;48.792;9.012;2024-02-14T04:10:16;3.88;;;2.70;;
10116;SDS011;5098;48.792;9.012;2024-02-14T04:12:42;7.22;;;3.30;;
10116;SDS011;5098;48.792;9.012;2024-02-14T04:15:08;4.70;;;3.30;;
10116;SDS011;5098;48.792;9.012;2024-02-14T04:17:34;2.60;;;1.92;;
10116;SDS011;5098;48.792;9.012;2024-02-14T04:20:01;6.55;;;2.78;;
10116;SDS011;5098;48.792;9.012;2024-02-14T04:22:27;6.80;;;2.75;;
10116;SDS011;5098;48.792;9.012;2024-02-14T04:24:53;5.35;;;2.72;;
10116;SDS011;5098;48.792;9.012;2024-02-14T04:27:19;4.88;;;3.60;;
10116;SDS011;5098;48.792;9.012;2024-02-14T04:29:45;5.65;;;2.40;;
10116;SDS011;5098;48.792;9.012;2024-02-14T04:32:12;5.40;;;2.33;;
10116;SDS011;5098;48.792;9.012;2024-02-14T04:34:39;6.05;;;2.55;;
10116;SDS011;5098;48.792;9.012;2024-02-14T04:37:05;5.03;;;2.95;;
10116;SDS011;5098;48.792;9.012;2024-02-14T04:39:43;5.25;;;2.88;;
10116;SDS011;5098;48.792;9.012;2024-02-14T04:42:09;5.03;;;2.53;;
10116;SDS011;5098;48.792;9.012;2024-02-14T04:44:35;5.13;;;2.88;;
10116;SDS011;5098;48.792;9.012;2024-02-14T04:47:02;6.45;;;3.28;;
10116;SDS011;5098;48.792;9.012;2024-02-14T04:49:28;3.60;;;2.63;;
10116;SDS011;5098;48.792;9.012;2024-02-14T04:51:54;4.97;;;2.33;;
10116;SDS011;5098;48.792;9.012;2024-02-14T04:54:21;4.50;;;3.10;;
10116;SDS011;5098;48.792;9.012;2024-02-14T04:56:47;3.78;;;2.90;;
10116;SDS011;5098;48.792;9.012;2024-02-14T04:59:13;5.70;;;2.75;;
10116;SDS011;5098;48.792;9.012;2024-02-14T05:01:39;3.75;;;2.40;;
10116;SDS011;5098;48.792;9.012;2024-02-14T05:04:08;5.75;;;2.90;;
10116;SDS011;5098;48.792;9.012;2024-02-14T05:06:34;6.70;;;2.40;;
10116;SDS011;5098;48.792;9.012;2024-02-14T05:09:01;5.03;;;2.92;;
10116;SDS011;5098;48.792;9.012;2024-02-14T05:11:27;5.30;;;2.95;;
10116;SDS011;5098;48.792;9.012;2024-02-14T05:13:53;3.63;;;2.40;;
10116;SDS011;5098;48.792;9.012;2024-02-14T05:16:20;3.97;;;2.13;;
10116;SDS011;5098;48.792;9.012;2024-02-14T05:18:46;2.80;;;2.27;;
10116;SDS011;5098;48.792;9.012;2024-02-14T05:21:13;4.72;;;2.60;;
10116;SDS011;5098;48.792;9.012;2024-02-14T05:23:39;2.63;;;2.13;;
10116;SDS011;5098;48.792;9.012;2024-02-14T05:26:05;5.22;;;2.33;;
10116;SDS011;5098;48.792;9.012;2024-02-14T05:28:32;2.90;;;1.85;;
10116;SDS011;5098;48.792;9.012;2024-02-14T05:30:58;3.30;;;2.15;;
10116;SDS011;5098;48.792;9.012;2024-02-14T05:33:25;10.07;;;2.45;;
10116;SDS011;5098;48.792;9.012;2024-02-14T05:35:51;5.25;;;2.22;;
10116;SDS011;5098;48.792;9.012;2024-02-14T05:38:17;4.13;;;2.10;;
10116;SDS011;5098;48.792;9.012;2024-02-14T05:40:45;2.80;;;2.00;;
10116;SDS011;5098;48.792;9.012;2024-02-14T05:43:11;2.93;;;1.50;;
10116;SDS011;5098;48.792;9.012;2024-02-14T05:45:37;3.40;;;1.75;;
10116;SDS011;5098;48.792;9.012;2024-02-14T05:48:03;6.40;;;1.93;;
10116;SDS011;5098;48.792;9.012;2024-02-14T05:50:29;5.07;;;2.40;;
10116;SDS011;5098;48.792;9.012;2024-02-14T05:52:55;4.70;;;2.27;;
10116;SDS011;5098;48.792;9.012;2024-02-14T05:55:25;4.93;;;2.15;;
10116;SDS011;5098;48.792;9.012;2024-02-14T05:57:51;4.30;;;1.95;;
10116;SDS011;5098;48.792;9.012;2024-02-14T06:00:17;4.95;;;2.00;;
10116;SDS011;5098;48.792;9.012;2024-02-14T06:02:44;2.90;;;1.90;;
10116;SDS011;5098;48.792;9.012;2024-02-14T06:05:10;2.95;;;1.92;;
10116;SDS011;5098;48.792;9.012;2024-02-14T06:07:36;4.20;;;1.67;;
10116;SDS011;5098;48.792;9.012;2024-02-14T06:10:02;6.03;;;2.27;;
10116;SDS011;5098;48.792;9.012;2024-02-14T06:12:31;4.75;;;2.60;;
10116;SDS011;5098;48.792;9.012;2024-02-14T06:14:57;4.60;;;2.30;;
10116;SDS011;5098;48.792;9.012;2024-02-14T06:17:23;3.50;;;1.50;;
10116;SDS011;5098;48.792;9.012;2024-02-14T06:19:49;3.97;;;1.98;;
10116;SDS011;5098;48.792;9.012;2024-02-14T06:22:15;3.50;;;2.08;;
10116;SDS011;5098;48.792;9.012;2024-02-14T06:24:41;7.20;;;2.40;;
10116;SDS011;5098;48.792;9.012;2024-02-14T06:27:07;3.55;;;1.80;;
10116;SDS011;5098;48.792;9.012;2024-02-14T06:29:33;10.67;;;2.30;;
10116;SDS011;5098;48.792;9.012;2024-02-14T06:31:59;2.87;;;1.77;;
10116;SDS011;5098;48.792;9.012;2024-02-14T06:34:25;2.90;;;1.63;;
10116;SDS011;5098;48.792;9.012;2024-02-14T06:36:53;2.42;;;1.75;;
10116;SDS011;5098;48.792;9.012;2024-02-14T06:39:19;3.03;;;1.80;;
10116;SDS011;5098;48.792;9.012;2024-02-14T06:41:46;8.52;;;1.92;;
10116;SDS011;5098;48.792;9.012;2024-02-14T06:44:13;2.28;;;2.08;;
10116;SDS011;5098;48.792;9.012;2024-02-14T06:46:39;3.38;;;1.55;;
10116;SDS011;5098;48.792;9.012;2024-02-14T06:49:06;3.25;;;1.95;;
10116;SDS011;5098;48.792;9.012;2024-02-14T06:51:32;2.50;;;2.00;;
10116;SDS011;5098;48.792;9.012;2024-02-14T06:53:59;4.93;;;1.90;;
10116;SDS011;5098;48.792;9.012;2024-02-14T06:56:25;2.63;;;2.28;;
10116;SDS011;5098;48.792;9.012;2024-02-14T06:58:51;4.07;;;1.80;;
10116;SDS011;5098;48.792;9.012;2024-02-14T07:01:20;2.80;;;1.45;;
10116;SDS011;5098;48.792;9.012;2024-02-14T07:03:48;2.75;;;1.65;;
10116;SDS011;5098;48.792;9.012;2024-02-14T07:06:14;2.80;;;1.70;;
10116;SDS011;5098;48.792;9.012;2024-02-14T07:08:41;4.10;;;1.88;;
10116;SDS011;5098;48.792;9.012;2024-02-14T07:11:07;3.20;;;2.17;;
10116;SDS011;5098;48.792;9.012;2024-02-14T07:13:33;3.47;;;2.20;;
10116;SDS011;5098;48.792;9.012;2024-02-14T07:15:59;4.82;;;2.30;;
10116;SDS011;5098;48.792;9.012;2024-02-14T07:18:25;2.37;;;2.17;;
10116;SDS011;5098;48.792;9.012;2024-02-14T07:20:51;5.60;;;2.35;;
10116;SDS011;5098;48.792;9.012;2024-02-14T07:23:18;2.93;;;2.47;;
10116;SDS011;5098;48.792;9.012;2024-02-14T07:25:44;4.93;;;2.47;;
10116;SDS011;5098;48.792;9.012;2024-02-14T07:28:10;1.33;;;1.20;;
10116;SDS011;5098;48.792;9.012;2024-02-14T07:30:36;4.35;;;2.10;;
10116;SDS011;5098;48.792;9.012;2024-02-14T07:33:02;9.85;;;2.47;;
10116;SDS011;5098;48.792;9.012;2024-02-14T07:35:29;5.40;;;2.07;;
10116;SDS011;5098;48.792;9.012;2024-02-14T07:37:55;5.50;;;2.33;;
10116;SDS011;5098;48.792;9.012;2024-02-14T07:40:22;3.50;;;2.17;;
10116;SDS011;5098;48.792;9.012;2024-02-14T07:42:48;3.20;;;2.10;;
10116;SDS011;5098;48.792;9.012;2024-02-14T07:45:14;2.60;;;2.00;;
10116;SDS011;5098;48.792;9.012;2024-02-14T07:47:41;4.77;;;2.27;;
10116;SDS011;5098;48.792;9.012;2024-02-14T07:50:08;2.63;;;1.73;;
10116;SDS011;5098;48.792;9.012;2024-02-14T07:52:34;2.73;;;1.90;;
10116;SDS011;5098;48.792;9.012;2024-02-14T07:55:01;2.60;;;1.60;;
10116;SDS011;5098;48.792;9.012;2024-02-14T07:57:27;3.47;;;2.00;;
10116;SDS011;5098;48.792;9.012;2024-02-14T07:59:53;3.43;;;1.87;;
10116;SDS011;5098;48.792;9.012;2024-02-14T08:02:20;3.30;;;2.10;;
10116;SDS011;5098;48.792;9.012;2024-02-14T08:04:46;2.50;;;2.03;;
10116;SDS011;5098;48.792;9.012;2024-02-14T08:07:12;2.70;;;2.10;;
10116;SDS011;5098;48.792;9.012;2024-02-14T08:09:38;5.07;;;2.40;;
10116;SDS011;5098;48.792;9.012;2024-02-14T08:12:05;4.80;;;2.30;;
10116;SDS011;5098;48.792;9.012;2024-02-14T08:14:31;4.30;;;2.50;;
10116;SDS011;5098;48.792;9.012;2024-02-14T08:16:57;6.70;;;1.93;;
10116;SDS011;5098;48.792;9.012;2024-02-14T08:19:23;2.67;;;2.47;;
10116;SDS011;5098;48.792;9.012;2024-02-14T08:21:49;2.83;;;2.00;;
10116;SDS011;5098;48.792;9.012;2024-02-14T08:24:16;3.70;;;1.77;;
10116;SDS011;5098;48.792;9.012;2024-02-14T08:26:42;4.77;;;2.57;;
10116;SDS011;5098;48.792;9.012;2024-02-14T08:29:09;5.80;;;2.23;;
10116;SDS011;5098;48.792;9.012;2024-02-14T08:31:36;4.40;;;2.30;;
10116;SDS011;5098;48.792;9.012;2024-02-14T08:34:03;5.53;;;2.50;;
10116;SDS011;5098;48.792;9.012;2024-02-14T08:36:29;5.93;;;1.77;;
10116;SDS011;5098;48.792;9.012;2024-02-14T08:38:55;3.13;;;1.90;;
10116;SDS011;5098;48.792;9.012;2024-02-14T08:41:21;4.30;;;2.40;;
10116;SDS011;5098;48.792;9.012;2024-02-14T08:43:48;5.23;;;1.67;;
10116;SDS011;5098;48.792;9.012;2024-02-14T08:46:14;4.50;;;1.63;;
10116;SDS011;5098;48.792;9.012;2024-02-14T08:48:43;2.77;;;2.10;;
10116;SDS011;5098;48.792;9.012;2024-02-14T08:51:13;1.90;;;1.43;;
10116;SDS011;5098;48.792;9.012;2024-02-14T08:53:39;2.90;;;1.90;;
10116;SDS011;5098;48.792;9.012;2024-02-14T08:56:09;2.67;;;1.83;;
10116;SDS011;5098;48.792;9.012;2024-02-14T08:58:36;3.83;;;1.50;;
10116;SDS011;5098;48.792;9.012;2024-02-14T09:01:02;3.17;;;1.43;;
10116;SDS011;5098;48.792;9.012;2024-02-14T09:03:28;5.30;;;1.97;;
10116;SDS011;5098;48.792;9.012;2024-02-14T09:05:56;2.80;;;1.60;;
10116;SDS011;5098;48.792;9.012;2024-02-14T09:08:23;1.70;;;1.10;;
10116;SDS011;5098;48.792;9.012;2024-02-14T09:10:49;5.90;;;2.40;;
10116;SDS011;5098;48.792;9.012;2024-02-14T09:13:16;4.23;;;1.90;;
10116;SDS011;5098;48.792;9.012;2024-02-14T09:15:42;1.73;;;1.40;;
10116;SDS011;5098;48.792;9.012;2024-02-14T09:18:08;2.77;;;1.67;;
10116;SDS011;5098;48.792;9.012;2024-02-14T09:20:34;3.37;;;2.13;;
10116;SDS011;5098;48.792;9.012;2024-02-14T09:23:02;5.93;;;2.70;;
10116;SDS011;5098;48.792;9.012;2024-02-14T09:25:29;3.73;;;1.87;;
10116;SDS011;5098;48.792;9.012;2024-02-14T09:27:55;4.70;;;2.20;;
10116;SDS011;5098;48.792;9.012;2024-02-14T09:30:21;3.00;;;1.60;;
10116;SDS011;5098;48.792;9.012;2024-02-14T09:32:47;4.43;;;2.10;;
10116;SDS011;5098;48.792;9.012;2024-02-14T09:35:15;2.57;;;1.43;;
10116;SDS011;5098;48.792;9.012;2024-02-14T09:37:41;4.53;;;1.97;;
10116;SDS011;5098;48.792;9.012;2024-02-14T09:40:07;2.80;;;1.57;;
10116;SDS011;5098;48.792;9.012;2024-02-14T09:42:38;3.23;;;2.17;;
10116;SDS011;5098;48.792;9.012;2024-02-14T09:45:04;3.30;;;2.10;;
10116;SDS011;5098;48.792;9.012;2024-02-14T09:47:32;3.83;;;1.93;;
10116;SDS011;5098;48.792;9.012;2024-02-14T09:49:59;3.40;;;1.93;;
10116;SDS011;5098;48.792;9.012;2024-02-14T09:52:25;4.83;;;2.23;;
10116;SDS011;5098;48.792;9.012;2024-02-14T09:54:51;3.47;;;2.20;;
10116;SDS011;5098;48.792;9.012;2024-02-14T09:57:17;2.60;;;1.87;;
10116;SDS011;5098;48.792;9.012;2024-02-14T09:59:44;4.30;;;1.80;;
10116;SDS011;5098;48.792;9.012;2024-02-14T10:02:10;3.60;;;1.97;;
10116;SDS011;5098;48.792;9.012;2024-02-14T10:04:36;2.20;;;1.73;;
10116;SDS011;5098;48.792;9.012;2024-02-14T10:07:06;2.97;;;1.70;;
10116;SDS011;5098;48.792;9.012;2024-02-14T10:09:40;4.23;;;2.20;;
10116;SDS011;5098;48.792;9.012;2024-02-14T10:12:07;2.63;;;1.47;;
10116;SDS011;5098;48.792;9.012;2024-02-14T10:14:36;1.93;;;1.30;;
10116;SDS011;5098;48.792;9.012;2024-02-14T10:17:03;2.00;;;1.77;;
10116;SDS011;5098;48.792;9.012;2024-02-14T10:19:30;3.40;;;1.60;;
10116;SDS011;5098;48.792;9.012;2024-02-14T10:21:59;3.47;;;1.77;;
10116;SDS011;5098;48.792;9.012;2024-02-14T10:24:28;7.57;;;1.87;;
10116;SDS011;5098;48.792;9.012;2024-02-14T10:26:56;2.40;;;1.90;;
10116;SDS011;5098;48.792;9.012;2024-02-14T10:29:23;6.20;;;2.10;;
10116;SDS011;5098;48.792;9.012;2024-02-14T10:31:49;4.00;;;2.00;;
10116;SDS011;5098;48.792;9.012;2024-02-14T10:34:16;3.67;;;1.77;;
10116;SDS011;5098;48.792;9.012;2024-02-14T10:36:45;3.70;;;1.77;;
10116;SDS011;5098;48.792;9.012;2024-02-14T10:39:12;3.00;;;2.20;;
10116;SDS011;5098;48.792;9.012;2024-02-14T10:41:40;3.63;;;1.57;;
10116;SDS011;5098;48.792;9.012;2024-02-14T10:44:06;6.43;;;1.97;;
10116;SDS011;5098;48.792;9.012;2024-02-14T10:46:35;5.20;;;1.70;;
10116;SDS011;5098;48.792;9.012;2024-02-14T10:49:03;2.50;;;1.83;;
10116;SDS011;5098;48.792;9.012;2024-02-14T10:51:32;2.90;;;1.40;;
10116;SDS011;5098;48.792;9.012;2024-02-14T10:54:00;1.10;;;1.00;;
10116;SDS011;5098;48.792;9.012;2024-02-14T10:56:29;1.97;;;1.30;;
10116;SDS011;5098;48.792;9.012;2024-02-14T10:58:56;1.60;;;1.20;;
10116;SDS011;5098;48.792;9.012;2024-02-14T11:01:28;1.87;;;1.03;;
10116;SDS011;5098;48.792;9.012;2024-02-14T11:03:58;1.40;;;1.17;;
10116;SDS011;5098;48.792;9.012;2024-02-14T11:06:25;1.90;;;1.50;;
10116;SDS011;5098;48.792;9.012;2024-02-14T11:08:58;1.30;;;1.10;;
10116;SDS011;5098;48.792;9.012;2024-02-14T11:11:27;1.80;;;1.40;;
10116;SDS011;5098;48.792;9.012;2024-02-14T11:13:54;1.53;;;0.93;;
10116;SDS011;5098;48.792;9.012;2024-02-14T11:16:27;2.00;;;1.47;;
10116;SDS011;5098;48.792;9.012;2024-02-14T11:19:07;2.57;;;1.33;;
10116;SDS011;5098;48.792;9.012;2024-02-14T11:21:45;2.10;;;1.50;;
10116;SDS011;5098;48.792;9.012;2024-02-14T11:24:13;1.90;;;1.00;;
10116;SDS011;5098;48.792;9.012;2024-02-14T11:26:47;2.30;;;1.30;;
10116;SDS011;5098;48.792;9.012;2024-02-14T11:29:28;2.07;;;1.30;;
10116;SDS011;5098;48.792;9.012;2024-02-14T11:31:59;1.30;;;1.20;;
10116;SDS011;5098;48.792;9.012;2024-02-14T11:34:25;1.43;;;1.33;;
10116;SDS011;5098;48.792;9.012;2024-02-14T11:36:51;2.23;;;1.60;;
10116;SDS011;5098;48.792;9.012;2024-02-14T11:39:17;1.43;;;1.17;;
10116;SDS011;5098;48.792;9.012;2024-02-14T11:41:45;3.03;;;2.17;;
10116;SDS011;5098;48.792;9.012;2024-02-14T11:44:12;2.70;;;1.77;;
10116;SDS011;5098;48.792;9.012;2024-02-14T11:46:38;1.60;;;1.27;;
10116;SDS011;5098;48.792;9.012;2024-02-14T11:49:05;1.83;;;1.40;;
10116;SDS011;5098;48.792;9.012;2024-02-14T11:51:32;2.00;;;1.70;;
10116;SDS011;5098;48.792;9.012;2024-02-14T11:54:00;3.90;;;1.73;;
10116;SDS011;5098;48.792;9.012;2024-02-14T11:56:30;2.00;;;1.23;;
10116;SDS011;5098;48.792;9.012;2024-02-14T11:59:01;4.90;;;1.50;;
10116;SDS011;5098;48.792;9.012;2024-02-14T12:01:29;2.07;;;1.00;;
10116;SDS011;5098;48.792;9.012;2024-02-14T12:03:56;3.30;;;1.20;;
10116;SDS011;5098;48.792;9.012;2024-02-14T12:06:23;1.50;;;1.20;;
10116;SDS011;5098;48.792;9.012;2024-02-14T12:08:49;2.50;;;1.37;;
10116;SDS011;5098;48.792;9.012;2024-02-14T12:11:16;1.23;;;1.07;;
10116;SDS011;5098;48.792;9.012;2024-02-14T12:13:43;4.90;;;1.50;;
10116;SDS011;5098;48.792;9.012;2024-02-14T12:16:11;3.50;;;1.30;;
10116;SDS011;5098;48.792;9.012;2024-02-14T12:18:38;2.10;;;1.63;;
10116;SDS011;5098;48.792;9.012;2024-02-14T12:21:05;2.13;;;1.10;;
10116;SDS011;5098;48.792;9.012;2024-02-14T12:23:35;2.10;;;0.80;;
10116;SDS011;5098;48.792;9.012;2024-02-14T12:26:02;1.90;;;1.50;;
10116;SDS011;5098;48.792;9.012;2024-02-14T12:28:29;1.40;;;1.20;;
10116;SDS011;5098;48.792;9.012;2024-02-14T12:30:56;1.23;;;1.10;;
10116;SDS011;5098;48.792;9.012;2024-02-14T12:33:23;1.60;;;1.30;;
10116;SDS011;5098;48.792;9.012;2024-02-14T12:35:50;1.37;;;0.90;;
10116;SDS011;5098;48.792;9.012;2024-02-14T12:38:17;1.07;;;0.80;;
10116;SDS011;5098;48.792;9.012;2024-02-14T12:40:43;1.30;;;0.90;;
10116;SDS011;5098;48.792;9.012;2024-02-14T12:43:10;2.40;;;1.10;;
10116;SDS011;5098;48.792;9.012;2024-02-14T12:45:36;1.60;;;0.93;;
10116;SDS011;5098;48.792;9.012;2024-02-14T12:48:03;1.73;;;1.23;;
10116;SDS011;5098;48.792;9.012;2024-02-14T12:50:30;3.90;;;0.97;;
10116;SDS011;5098;48.792;9.012;2024-02-14T12:52:56;1.50;;;1.37;;
10116;SDS011;5098;48.792;9.012;2024-02-14T12:55:23;1.20;;;0.87;;
10116;SDS011;5098;48.792;9.012;2024-02-14T12:57:51;2.10;;;0.90;;
10116;SDS011;5098;48.792;9.012;2024-02-14T13:00:17;1.60;;;0.90;;
10116;SDS011;5098;48.792;9.012;2024-02-14T13:02:43;2.10;;;1.20;;
10116;SDS011;5098;48.792;9.012;2024-02-14T13:05:10;1.07;;;0.83;;
10116;SDS011;5098;48.792;9.012;2024-02-14T13:07:36;3.63;;;1.17;;
10116;SDS011;5098;48.792;9.012;2024-02-14T13:10:03;2.73;;;1.13;;
10116;SDS011;5098;48.792;9.012;2024-02-14T13:12:30;1.30;;;1.00;;
10116;SDS011;5098;48.792;9.012;2024-02-14T13:14:56;6.53;;;4.67;;
10116;SDS011;5098;48.792;9.012;2024-02-14T13:17:24;7.83;;;4.30;;
10116;SDS011;5098;48.792;9.012;2024-02-14T13:19:51;5.80;;;3.40;;
10116;SDS011;5098;48.792;9.012;2024-02-14T13:22:18;1.67;;;1.30;;
10116;SDS011;5098;48.792;9.012;2024-02-14T13:24:44;2.70;;;1.47;;
10116;SDS011;5098;48.792;9.012;2024-02-14T13:27:11;1.27;;;0.93;;
10116;SDS011;5098;48.792;9.012;2024-02-14T13:29:38;1.10;;;0.80;;
10116;SDS011;5098;48.792;9.012;2024-02-14T13:32:04;1.80;;;1.40;;
10116;SDS011;5098;48.792;9.012;2024-02-14T13:34:32;1.93;;;1.40;;
10116;SDS011;5098;48.792;9.012;2024-02-14T13:36:58;2.47;;;1.10;;
10116;SDS011;5098;48.792;9.012;2024-02-14T13:39:24;1.00;;;0.70;;
10116;SDS011;5098;48.792;9.012;2024-02-14T13:41:51;1.40;;;1.07;;
10116;SDS011;5098;48.792;9.012;2024-02-14T13:44:17;1.93;;;1.63;;
10116;SDS011;5098;48.792;9.012;2024-02-14T13:46:44;1.40;;;0.80;;
10116;SDS011;5098;48.792;9.012;2024-02-14T13:49:11;1.47;;;0.90;;
10116;SDS011;5098;48.792;9.012;2024-02-14T13:51:39;1.40;;;1.17;;
10116;SDS011;5098;48.792;9.012;2024-02-14T13:54:05;2.03;;;1.00;;
10116;SDS011;5098;48.792;9.012;2024-02-14T13:56:34;1.60;;;0.73;;
10116;SDS011;5098;48.792;9.012;2024-02-14T13:59:00;1.73;;;0.67;;
10116;SDS011;5098;48.792;9.012;2024-02-14T14:01:26;1.20;;;0.60;;
10116;SDS011;5098;48.792;9.012;2024-02-14T14:03:52;1.60;;;0.63;;
10116;SDS011;5098;48.792;9.012;2024-02-14T14:06:21;1.80;;;0.70;;
10116;SDS011;5098;48.792;9.012;2024-02-14T14:08:49;1.40;;;0.90;;
10116;SDS011;5098;48.792;9.012;2024-02-14T14:11:15;1.60;;;0.87;;
10116;SDS011;5098;48.792;9.012;2024-02-14T14:13:41;1.30;;;0.67;;
10116;SDS011;5098;48.792;9.012;2024-02-14T14:16:07;1.23;;;0.70;;
10116;SDS011;5098;48.792;9.012;2024-02-14T14:18:34;1.50;;;0.73;;
10116;SDS011;5098;48.792;9.012;2024-02-14T14:21:00;0.90;;;0.80;;
10116;SDS011;5098;48.792;9.012;2024-02-14T14:23:27;2.40;;;0.70;;
10116;SDS011;5098;48.792;9.012;2024-02-14T14:25:57;2.00;;;0.90;;
10116;SDS011;5098;48.792;9.012;2024-02-14T14:28:23;1.20;;;1.07;;
10116;SDS011;5098;48.792;9.012;2024-02-14T14:30:55;1.93;;;1.20;;
10116;SDS011;5098;48.792;9.012;2024-02-14T14:33:22;1.10;;;0.93;;
10116;SDS011;5098;48.792;9.012;2024-02-14T14:35:50;1.03;;;0.70;;
10116;SDS011;5098;48.792;9.012;2024-02-14T14:38:18;1.27;;;0.60;;
10116;SDS011;5098;48.792;9.012;2024-02-14T14:40:45;2.20;;;0.90;;
10116;SDS011;5098;48.792;9.012;2024-02-14T14:43:11;1.33;;;0.60;;
10116;SDS011;5098;48.792;9.012;2024-02-14T14:45:37;1.00;;;0.60;;
10116;SDS011;5098;48.792;9.012;2024-02-14T14:48:04;2.03;;;1.00;;
10116;SDS011;5098;48.792;9.012;2024-02-14T14:50:30;1.20;;;0.70;;
10116;SDS011;5098;48.792;9.012;2024-02-14T14:52:57;6.40;;;1.20;;
10116;SDS011;5098;48.792;9.012;2024-02-14T14:55:24;1.90;;;1.07;;
10116;SDS011;5098;48.792;9.012;2024-02-14T14:57:50;1.50;;;0.90;;